createdAt,value
2022-08-14T00:00:14.755Z,73.47
2022-08-14T00:02:09.965Z,73.47
2022-08-14T00:03:09.906Z,74.24
2022-08-14T00:05:04.162Z,74.43
2022-08-14T00:06:14.074Z,74.05
2022-08-14T00:07:58.251Z,74.63
2022-08-14T00:08:59.322Z,74.15
2022-08-14T00:10:53.423Z,74.53
2022-08-14T00:11:52.354Z,74.98
2022-08-14T00:13:51.789Z,74.73
2022-08-14T00:14:46.487Z,75.27
2022-08-14T00:16:45.016Z,76.04
2022-08-14T00:17:47.975Z,75.85
2022-08-14T00:19:34.783Z,76.04
2022-08-14T00:20:36.051Z,76.43
2022-08-14T00:22:56.698Z,76.91
2022-08-14T00:23:30.059Z,76.33
2022-08-14T00:25:25.732Z,76.62
2022-08-14T00:26:25.715Z,76.62
2022-08-14T00:28:20.095Z,77.50
2022-08-14T00:29:20.091Z,77.01
2022-08-14T00:31:13.862Z,76.62
2022-08-14T00:32:55.745Z,76.72
2022-08-14T00:34:36.883Z,76.14
2022-08-14T00:35:07.938Z,77.59
2022-08-14T00:37:02.064Z,77.88
2022-08-14T00:38:02.031Z,78.71
2022-08-14T00:39:56.313Z,79.49
2022-08-14T00:40:56.243Z,79.29
2022-08-14T00:43:02.972Z,79.49
2022-08-14T00:43:50.466Z,79.78
2022-08-14T00:45:51.472Z,79.97
2022-08-14T00:46:45.557Z,80.07
2022-08-14T00:48:39.663Z,79.04
2022-08-14T00:49:42.989Z,79.43
2022-08-14T00:51:34.693Z,79.62
2022-08-14T00:52:33.393Z,80.20
2022-08-14T00:54:28.613Z,79.43
2022-08-14T00:55:28.596Z,79.43
2022-08-14T00:57:22.832Z,80.01
2022-08-14T00:58:28.024Z,79.62
2022-08-14T01:00:37.522Z,79.52
2022-08-14T01:01:17.967Z,80.26
2022-08-14T01:03:12.083Z,80.84
2022-08-14T01:04:38.318Z,80.55
2022-08-14T01:06:07.209Z,81.04
2022-08-14T01:07:07.638Z,80.55
2022-08-14T01:09:01.389Z,81.13
2022-08-14T01:10:01.385Z,81.04
2022-08-14T01:12:02.738Z,81.04
2022-08-14T01:12:55.545Z,80.94
2022-08-14T01:14:50.305Z,81.32
2022-08-14T01:16:02.759Z,80.94
2022-08-14T01:17:45.960Z,80.36
2022-08-14T01:18:45.455Z,80.65
2022-08-14T01:20:40.681Z,81.04
2022-08-14T01:21:46.811Z,80.94
2022-08-14T01:23:45.509Z,81.32
2022-08-14T01:24:34.618Z,81.42
2022-08-14T01:26:34.566Z,80.55
2022-08-14T01:27:28.068Z,80.36
2022-08-14T01:29:40.356Z,81.52
2022-08-14T01:30:22.335Z,82.29
2022-08-14T01:32:16.483Z,82.29
2022-08-14T01:33:16.479Z,81.90
2022-08-14T01:35:18.129Z,82.20
2022-08-14T01:36:22.740Z,83.16
2022-08-14T01:38:05.973Z,84.09
2022-08-14T01:39:05.721Z,83.70
2022-08-14T01:40:59.824Z,84.19
2022-08-14T01:41:59.806Z,84.38
2022-08-14T01:43:56.336Z,84.19
2022-08-14T01:44:54.194Z,84.19
2022-08-14T01:46:49.086Z,84.09
2022-08-14T01:47:49.068Z,84.47
2022-08-14T01:49:46.097Z,84.38
2022-08-14T01:50:44.269Z,84.47
2022-08-14T01:52:59.452Z,84.38
2022-08-14T01:53:38.368Z,84.57
2022-08-14T01:55:32.797Z,84.77
2022-08-14T01:56:32.453Z,84.57
2022-08-14T01:58:28.893Z,84.77
2022-08-14T01:59:26.804Z,84.95
2022-08-14T02:01:20.723Z,84.28
2022-08-14T02:02:20.771Z,84.57
2022-08-14T02:04:20.733Z,84.57
2022-08-14T02:05:15.777Z,84.86
2022-08-14T02:07:15.690Z,84.67
2022-08-14T02:08:10.536Z,84.77
2022-08-14T02:10:04.011Z,84.38
2022-08-14T02:11:03.992Z,85.15
2022-08-14T02:12:59.473Z,85.05
2022-08-14T02:13:58.123Z,84.77
2022-08-14T02:15:52.205Z,84.91
2022-08-14T02:16:52.207Z,85.11
2022-08-14T02:18:46.319Z,85.49
2022-08-14T02:19:46.309Z,86.61
2022-08-14T02:21:43.288Z,85.64
2022-08-14T02:22:47.292Z,85.21
2022-08-14T02:24:39.523Z,86.61
2022-08-14T02:25:34.626Z,87.67
2022-08-14T02:28:22.507Z,86.71
2022-08-14T02:28:57.670Z,86.61
2022-08-14T02:30:22.549Z,87.67
2022-08-14T02:31:28.381Z,87.48
2022-08-14T02:33:16.649Z,87.48
2022-08-14T02:34:22.032Z,87.58
2022-08-14T02:37:05.157Z,87.38
2022-08-14T02:37:10.871Z,87.77
2022-08-14T02:39:05.906Z,88.79
2022-08-14T02:40:05.897Z,88.64
2022-08-14T02:42:00.028Z,87.67
2022-08-14T02:43:00.570Z,87.58
2022-08-14T02:44:54.110Z,87.48
2022-08-14T02:45:54.105Z,87.29
2022-08-14T02:47:48.375Z,87.58
2022-08-14T02:49:03.049Z,87.96
2022-08-14T02:50:42.532Z,89.37
2022-08-14T02:51:42.519Z,88.69
2022-08-14T02:53:37.424Z,88.21
2022-08-14T02:54:36.266Z,88.02
2022-08-14T02:57:15.169Z,88.35
2022-08-14T02:57:40.341Z,87.92
2022-08-14T02:59:24.476Z,89.56
2022-08-14T03:00:24.468Z,89.65
2022-08-14T03:02:49.500Z,89.47
2022-08-14T03:03:18.549Z,89.75
2022-08-14T03:05:13.656Z,89.47
2022-08-14T03:06:13.640Z,89.75
2022-08-14T03:08:08.766Z,90.05
2022-08-14T03:09:08.758Z,90.14
2022-08-14T03:11:03.077Z,90.58
2022-08-14T03:12:05.034Z,89.85
2022-08-14T03:13:59.534Z,89.95
2022-08-14T03:14:58.195Z,89.47
2022-08-14T03:16:52.304Z,89.17
2022-08-14T03:17:57.159Z,89.85
2022-08-14T03:19:46.448Z,90.14
2022-08-14T03:20:46.486Z,89.47
2022-08-14T03:22:42.012Z,90.72
2022-08-14T03:23:41.519Z,90.91
2022-08-14T03:25:37.614Z,91.16
2022-08-14T03:26:35.649Z,91.06
2022-08-14T03:28:33.267Z,91.64
2022-08-14T03:29:29.818Z,91.35
2022-08-14T03:31:25.887Z,91.74
2022-08-14T03:32:30.279Z,91.44
2022-08-14T03:34:24.550Z,91.68
2022-08-14T03:35:17.989Z,91.44
2022-08-14T03:37:51.458Z,92.22
2022-08-14T03:39:12.960Z,92.12
2022-08-14T03:40:06.314Z,91.74
2022-08-14T03:41:06.282Z,91.83
2022-08-14T03:43:00.432Z,91.64
2022-08-14T03:44:01.291Z,91.35
2022-08-14T03:45:54.798Z,91.44
2022-08-14T03:46:56.019Z,91.54
2022-08-14T03:48:48.882Z,92.89
2022-08-14T03:49:50.048Z,93.71
2022-08-14T03:51:42.997Z,93.13
2022-08-14T03:52:47.887Z,93.33
2022-08-14T03:54:37.093Z,93.33
2022-08-14T03:55:37.084Z,93.76
2022-08-14T03:57:31.192Z,92.50
2022-08-14T03:58:35.280Z,92.60
2022-08-14T04:00:43.508Z,93.37
2022-08-14T04:01:25.390Z,92.99
2022-08-14T04:03:24.250Z,92.99
2022-08-14T04:04:19.513Z,92.80
2022-08-14T04:06:13.771Z,93.71
2022-08-14T04:07:13.755Z,93.13
2022-08-14T04:09:07.911Z,93.23
2022-08-14T04:10:07.902Z,93.13
2022-08-14T04:12:03.087Z,93.62
2022-08-14T04:13:04.033Z,93.52
2022-08-14T04:14:57.381Z,93.81
2022-08-14T04:16:02.245Z,94.00
2022-08-14T04:17:51.549Z,93.81
2022-08-14T04:18:51.533Z,93.52
2022-08-14T04:20:54.491Z,93.33
2022-08-14T04:22:01.874Z,93.13
2022-08-14T04:23:39.925Z,92.94
2022-08-14T04:24:39.899Z,92.94
2022-08-14T04:26:43.282Z,93.13
2022-08-14T04:27:33.715Z,93.33
2022-08-14T04:29:28.840Z,92.51
2022-08-14T04:30:30.827Z,92.71
2022-08-14T04:32:57.335Z,92.99
2022-08-14T04:33:23.203Z,92.94
2022-08-14T04:35:23.371Z,92.85
2022-08-14T04:36:17.635Z,92.27
2022-08-14T04:38:36.458Z,93.04
2022-08-14T04:39:12.124Z,92.90
2022-08-14T04:41:04.900Z,92.65
2022-08-14T04:42:08.106Z,92.61
2022-08-14T04:43:59.241Z,92.80
2022-08-14T04:45:00.761Z,92.46
2022-08-14T04:46:57.412Z,92.17
2022-08-14T04:47:53.961Z,92.36
2022-08-14T04:49:57.337Z,92.94
2022-08-14T04:50:49.146Z,92.56
2022-08-14T04:52:42.215Z,92.65
2022-08-14T04:53:43.125Z,92.56
2022-08-14T04:55:35.971Z,93.38
2022-08-14T04:56:35.963Z,93.09
2022-08-14T04:58:32.591Z,93.19
2022-08-14T04:59:31.121Z,93.66
2022-08-14T05:01:25.255Z,94.24
2022-08-14T05:02:25.332Z,94.73
2022-08-14T05:04:20.157Z,94.44
2022-08-14T05:05:18.956Z,93.76
2022-08-14T05:07:13.212Z,93.52
2022-08-14T05:08:31.790Z,93.91
2022-08-14T05:10:13.317Z,93.62
2022-08-14T05:11:07.377Z,93.62
2022-08-14T05:13:12.780Z,93.91
2022-08-14T05:14:16.971Z,94.29
2022-08-14T05:15:56.024Z,93.71
2022-08-14T05:16:56.017Z,94.29
2022-08-14T05:19:18.208Z,94.78
2022-08-14T05:21:57.917Z,94.78
2022-08-14T05:21:59.530Z,94.58
2022-08-14T05:22:44.406Z,94.20
2022-08-14T05:24:39.001Z,94.10
2022-08-14T05:25:39.005Z,94.29
2022-08-14T05:27:34.128Z,94.68
2022-08-14T05:28:34.117Z,94.78
2022-08-14T05:30:28.051Z,94.00
2022-08-14T05:31:39.577Z,94.00
2022-08-14T05:33:22.191Z,94.39
2022-08-14T05:34:22.170Z,94.00
2022-08-14T05:36:16.683Z,93.91
2022-08-14T05:37:15.987Z,93.91
2022-08-14T05:39:10.182Z,93.62
2022-08-14T05:40:10.166Z,93.62
2022-08-14T05:42:09.802Z,93.13
2022-08-14T05:43:06.936Z,93.13
2022-08-14T05:44:58.389Z,93.62
2022-08-14T05:45:58.388Z,94.00
2022-08-14T05:47:52.494Z,94.96
2022-08-14T05:48:52.475Z,94.58
2022-08-14T05:50:47.256Z,93.57
2022-08-14T05:51:47.249Z,94.53
2022-08-14T05:53:42.651Z,94.63
2022-08-14T05:54:42.378Z,94.92
2022-08-14T05:56:36.870Z,94.53
2022-08-14T05:57:36.463Z,95.31
2022-08-14T05:59:39.280Z,94.63
2022-08-14T06:00:36.842Z,94.34
2022-08-14T06:02:24.880Z,94.15
2022-08-14T06:03:24.863Z,94.92
2022-08-14T06:05:23.293Z,94.63
2022-08-14T06:06:18.956Z,94.73
2022-08-14T06:08:36.672Z,95.45
2022-08-14T06:09:13.336Z,95.26
2022-08-14T06:11:07.565Z,95.54
2022-08-14T06:12:07.504Z,95.06
2022-08-14T06:14:01.666Z,95.74
2022-08-14T06:15:01.636Z,95.54
2022-08-14T06:16:55.759Z,95.45
2022-08-14T06:17:59.314Z,95.64
2022-08-14T06:19:49.890Z,96.22
2022-08-14T06:20:49.884Z,96.41
2022-08-14T06:22:45.205Z,96.89
2022-08-14T06:23:45.030Z,97.09
2022-08-14T06:25:39.150Z,96.61
2022-08-14T06:26:39.149Z,96.89
2022-08-14T06:28:33.287Z,96.89
2022-08-14T06:29:33.461Z,97.04
2022-08-14T06:31:27.376Z,95.50
2022-08-14T06:32:38.114Z,95.98
2022-08-14T06:35:03.751Z,94.68
2022-08-14T06:35:21.563Z,94.38
2022-08-14T06:37:16.655Z,94.04
2022-08-14T06:38:17.379Z,91.29
2022-08-14T06:40:16.795Z,90.80
2022-08-14T06:41:10.888Z,88.13
2022-08-14T06:43:04.026Z,86.19
2022-08-14T06:44:04.011Z,85.27
2022-08-14T06:45:58.175Z,82.05
2022-08-14T06:46:58.173Z,82.24
2022-08-14T06:48:52.292Z,80.93
2022-08-14T06:49:57.919Z,80.29
2022-08-14T06:51:46.387Z,78.87
2022-08-14T06:52:50.296Z,79.35
2022-08-14T06:54:40.523Z,78.67
2022-08-14T06:55:40.611Z,78.09
2022-08-14T06:57:34.659Z,78.71
2022-08-14T06:58:34.643Z,78.13
2022-08-14T07:00:30.940Z,79.43
2022-08-14T07:01:28.755Z,77.48
2022-08-14T07:03:22.935Z,77.62
2022-08-14T07:04:24.347Z,77.04
2022-08-14T07:06:34.395Z,77.14
2022-08-14T07:07:17.056Z,76.75
2022-08-14T07:09:11.314Z,76.63
2022-08-14T07:10:13.331Z,75.65
2022-08-14T07:12:05.715Z,75.30
2022-08-14T07:13:06.141Z,73.97
2022-08-14T07:15:01.340Z,74.17
2022-08-14T07:16:00.719Z,73.49
2022-08-14T07:17:54.945Z,74.13
2022-08-14T07:18:54.961Z,72.96
2022-08-14T07:20:49.298Z,73.00
2022-08-14T07:21:49.261Z,73.58
2022-08-14T07:23:44.311Z,73.00
2022-08-14T07:24:43.373Z,72.22
2022-08-14T07:26:38.733Z,72.51
2022-08-14T07:27:37.505Z,73.10
2022-08-14T07:29:31.718Z,72.16
2022-08-14T07:30:33.853Z,71.84
2022-08-14T07:32:33.819Z,70.90
2022-08-14T07:33:30.048Z,70.64
2022-08-14T07:35:20.194Z,68.65
2022-08-14T07:36:27.006Z,68.65
2022-08-14T07:38:14.313Z,67.90
2022-08-14T07:39:14.305Z,67.41
2022-08-14T07:41:11.974Z,67.48
2022-08-14T07:42:09.447Z,68.62
2022-08-14T07:44:29.407Z,68.78
2022-08-14T07:45:03.248Z,69.46
2022-08-14T07:46:57.408Z,69.40
2022-08-14T07:47:57.384Z,69.40
2022-08-14T07:49:55.395Z,69.21
2022-08-14T07:50:51.526Z,69.11
2022-08-14T07:52:45.795Z,69.60
2022-08-14T07:53:45.365Z,69.34
2022-08-14T07:55:39.595Z,70.63
2022-08-14T07:56:46.780Z,71.77
2022-08-14T07:58:38.609Z,72.74
2022-08-14T07:59:40.800Z,72.35
2022-08-14T08:01:29.920Z,72.09
2022-08-14T08:02:28.988Z,72.58
2022-08-14T08:04:24.577Z,72.19
2022-08-14T08:05:23.085Z,72.29
2022-08-14T08:07:18.209Z,73.13
2022-08-14T08:08:27.135Z,72.45
2022-08-14T08:10:12.380Z,73.33
2022-08-14T08:11:14.815Z,73.13
2022-08-14T08:13:07.233Z,73.46
2022-08-14T08:14:10.892Z,73.07
2022-08-14T08:15:08.017Z,71.80
2022-08-14T08:16:07.189Z,72.23
2022-08-14T08:17:07.204Z,72.29
2022-08-14T08:18:07.195Z,71.84
2022-08-14T08:19:12.747Z,72.46
2022-08-14T08:20:09.031Z,71.78
2022-08-14T08:21:07.208Z,71.39
2022-08-14T08:22:07.219Z,71.19
2022-08-14T08:23:07.228Z,69.63
2022-08-14T08:24:07.231Z,70.80
2022-08-14T08:25:13.876Z,71.42
2022-08-14T08:26:07.245Z,70.34
2022-08-14T08:27:07.256Z,70.38
2022-08-14T08:28:08.647Z,70.09
2022-08-14T08:29:07.261Z,70.57
2022-08-14T08:30:10.161Z,69.60
2022-08-14T08:31:08.213Z,68.62
2022-08-14T08:32:07.297Z,68.88
2022-08-14T08:33:07.293Z,69.07
2022-08-14T08:34:07.300Z,69.56
2022-08-14T08:35:07.308Z,69.56
2022-08-14T08:36:07.954Z,69.76
2022-08-14T08:37:07.527Z,69.27
2022-08-14T08:39:15.555Z,69.27
2022-08-14T08:40:42.070Z,69.17
2022-08-14T08:41:41.097Z,68.68
2022-08-14T08:43:35.436Z,68.78
2022-08-14T08:44:35.429Z,69.27
2022-08-14T08:46:29.746Z,69.37
2022-08-14T08:47:29.744Z,69.56
2022-08-14T08:49:23.880Z,69.43
2022-08-14T08:50:31.685Z,68.98
2022-08-14T08:52:24.989Z,69.27
2022-08-14T08:53:17.985Z,69.34
2022-08-14T08:55:12.890Z,68.10
2022-08-14T08:56:12.163Z,69.46
2022-08-14T08:58:15.983Z,69.40
2022-08-14T08:59:06.366Z,70.09
2022-08-14T09:01:00.584Z,68.82
2022-08-14T09:02:00.502Z,68.91
2022-08-14T09:03:54.670Z,69.14
2022-08-14T09:04:54.652Z,69.04
2022-08-14T09:07:01.028Z,67.87
2022-08-14T09:07:49.990Z,67.77
2022-08-14T09:09:53.926Z,67.51
2022-08-14T09:10:44.260Z,67.29
2022-08-14T09:12:38.418Z,67.77
2022-08-14T09:13:38.405Z,67.51
2022-08-14T09:15:36.788Z,67.12
2022-08-14T09:16:33.553Z,66.24
2022-08-14T09:18:27.722Z,66.47
2022-08-14T09:19:27.714Z,65.98
2022-08-14T09:21:24.215Z,66.11
2022-08-14T09:22:33.000Z,65.52
2022-08-14T09:24:28.824Z,65.23
2022-08-14T09:25:16.031Z,64.84
2022-08-14T09:27:10.164Z,63.10
2022-08-14T09:28:10.175Z,63.49
2022-08-14T09:30:31.504Z,62.54
2022-08-14T09:31:17.491Z,62.48
2022-08-14T09:33:00.100Z,61.50
2022-08-14T09:33:59.484Z,61.69
2022-08-14T09:35:56.639Z,61.30
2022-08-14T09:36:53.858Z,61.69
2022-08-14T09:38:48.099Z,61.89
2022-08-14T09:39:48.148Z,62.08
2022-08-14T09:42:20.221Z,61.79
2022-08-14T09:42:50.048Z,61.50
2022-08-14T09:44:36.564Z,62.51
2022-08-14T09:45:39.691Z,61.82
2022-08-14T09:47:31.456Z,60.77
2022-08-14T09:48:31.469Z,60.31
2022-08-14T09:49:31.422Z,60.50
2022-08-14T09:50:31.424Z,60.34
2022-08-14T09:51:33.091Z,60.41
2022-08-14T09:52:33.927Z,59.94
2022-08-14T09:53:34.273Z,59.55
2022-08-14T09:54:31.470Z,58.86
2022-08-14T09:55:36.848Z,59.09
2022-08-14T09:56:32.767Z,59.39
2022-08-14T09:57:31.775Z,58.89
2022-08-14T09:58:31.521Z,59.19
2022-08-14T09:59:32.187Z,59.09
2022-08-14T10:00:31.619Z,59.19
2022-08-14T10:01:31.581Z,58.99
2022-08-14T10:02:31.603Z,59.19
2022-08-14T10:03:33.178Z,58.30
2022-08-14T10:04:33.530Z,58.01
2022-08-14T10:05:31.606Z,57.03
2022-08-14T10:06:31.617Z,57.59
2022-08-14T10:07:31.625Z,58.86
2022-08-14T10:08:31.643Z,58.11
2022-08-14T10:09:34.650Z,58.50
2022-08-14T10:10:34.417Z,58.11
2022-08-14T10:11:35.377Z,58.70
2022-08-14T10:12:31.692Z,57.32
2022-08-14T10:13:43.265Z,57.91
2022-08-14T10:14:35.401Z,57.22
2022-08-14T10:15:31.739Z,57.29
2022-08-14T10:16:33.561Z,58.15
2022-08-14T10:17:33.061Z,58.32
2022-08-14T10:18:31.790Z,58.19
2022-08-14T10:19:35.768Z,58.68
2022-08-14T10:20:39.732Z,58.02
2022-08-14T10:21:31.842Z,57.21
2022-08-14T10:23:12.914Z,57.31
2022-08-14T10:23:35.055Z,58.06
2022-08-14T10:24:37.390Z,58.33
2022-08-14T10:25:31.850Z,58.65
2022-08-14T10:26:31.856Z,58.75
2022-08-14T10:27:31.872Z,58.14
2022-08-14T10:29:03.646Z,58.33
2022-08-14T10:29:31.892Z,58.79
2022-08-14T10:30:31.904Z,58.69
2022-08-14T10:31:44.797Z,59.08
2022-08-14T10:32:36.595Z,58.50
2022-08-14T10:33:31.936Z,56.71
2022-08-14T10:34:36.528Z,57.86
2022-08-14T10:35:31.976Z,58.83
2022-08-14T10:36:36.865Z,59.12
2022-08-14T10:37:31.965Z,59.39
2022-08-14T10:38:31.978Z,59.09
2022-08-14T10:39:32.097Z,59.29
2022-08-14T10:40:38.265Z,59.88
2022-08-14T10:41:32.075Z,59.00
2022-08-14T10:42:32.007Z,58.41
2022-08-14T10:43:32.116Z,59.88
2022-08-14T10:44:32.024Z,60.66
2022-08-14T10:45:34.051Z,60.66
2022-08-14T10:47:38.043Z,59.59
2022-08-14T10:47:41.103Z,58.86
2022-08-14T10:48:36.976Z,58.57
2022-08-14T10:49:32.062Z,59.35
2022-08-14T10:50:32.069Z,59.55
2022-08-14T10:51:34.357Z,59.25
2022-08-14T10:52:33.887Z,59.06
2022-08-14T10:53:32.949Z,59.45
2022-08-14T10:54:37.308Z,58.54
2022-08-14T10:55:32.132Z,59.32
2022-08-14T10:56:33.817Z,60.79
2022-08-14T10:57:32.122Z,60.79
2022-08-14T10:58:34.209Z,60.79
2022-08-14T10:59:37.313Z,60.50
2022-08-14T11:00:35.684Z,60.30
2022-08-14T11:01:32.414Z,60.27
2022-08-14T11:02:44.704Z,60.86
2022-08-14T11:03:55.268Z,61.15
2022-08-14T11:04:32.269Z,60.17
2022-08-14T11:05:32.178Z,61.44
2022-08-14T11:06:32.186Z,60.30
2022-08-14T11:07:32.198Z,61.96
2022-08-14T11:08:32.200Z,59.42
2022-08-14T11:09:32.499Z,59.45
2022-08-14T11:10:32.213Z,59.55
2022-08-14T11:11:37.092Z,59.16
2022-08-14T11:12:34.959Z,60.13
2022-08-14T11:13:32.248Z,59.64
2022-08-14T11:14:32.250Z,59.25
2022-08-14T11:15:32.424Z,58.89
2022-08-14T11:16:32.253Z,58.14
2022-08-14T11:17:32.797Z,58.29
2022-08-14T11:18:40.030Z,57.43
2022-08-14T11:19:32.275Z,57.17
2022-08-14T11:20:32.285Z,55.79
2022-08-14T11:21:34.108Z,55.60
2022-08-14T11:22:55.567Z,55.49
2022-08-14T11:23:38.282Z,54.91
2022-08-14T11:24:53.949Z,55.30
2022-08-14T11:25:43.272Z,54.81
2022-08-14T11:26:32.355Z,55.10
2022-08-14T11:27:33.324Z,54.41
2022-08-14T11:28:48.091Z,56.74
2022-08-14T11:29:35.344Z,56.74
2022-08-14T11:30:51.025Z,56.72
2022-08-14T11:31:35.491Z,57.50
2022-08-14T11:32:32.391Z,57.57
2022-08-14T11:33:32.496Z,58.36
2022-08-14T11:34:34.813Z,59.24
2022-08-14T11:35:44.361Z,59.27
2022-08-14T11:37:02.107Z,57.77
2022-08-14T11:37:40.500Z,58.29
2022-08-14T11:38:32.446Z,58.06
2022-08-14T11:39:34.761Z,57.87
2022-08-14T11:40:32.499Z,57.97
2022-08-14T11:41:32.470Z,58.26
2022-08-14T11:43:06.321Z,58.65
2022-08-14T11:43:32.489Z,60.13
2022-08-14T11:44:46.582Z,59.73
2022-08-14T11:45:32.509Z,58.39
2022-08-14T11:46:37.401Z,58.39
2022-08-14T11:47:34.845Z,58.19
2022-08-14T11:49:02.360Z,57.01
2022-08-14T11:49:34.184Z,57.50
2022-08-14T11:50:36.770Z,57.01
2022-08-14T11:51:36.066Z,56.72
2022-08-14T11:52:32.567Z,56.13
2022-08-14T11:53:32.578Z,54.56
2022-08-14T11:54:34.510Z,55.35
2022-08-14T11:55:32.589Z,56.32
2022-08-14T11:56:32.597Z,55.93
2022-08-14T11:57:32.604Z,53.80
2022-08-14T11:58:32.607Z,54.39
2022-08-14T11:59:33.592Z,53.41
2022-08-14T12:00:35.007Z,53.28
2022-08-14T12:01:32.634Z,53.26
2022-08-14T12:03:01.138Z,53.85
2022-08-14T12:03:46.500Z,53.55
2022-08-14T12:04:34.016Z,54.50
2022-08-14T12:05:32.667Z,54.93
2022-08-14T12:06:38.539Z,55.02
2022-08-14T12:07:32.670Z,54.83
2022-08-14T12:08:32.685Z,54.83
2022-08-14T12:09:32.688Z,55.22
2022-08-14T12:10:42.350Z,55.32
2022-08-14T12:11:32.702Z,55.05
2022-08-14T12:12:47.243Z,55.15
2022-08-14T12:13:32.713Z,54.33
2022-08-14T12:14:35.409Z,53.45
2022-08-14T12:15:32.771Z,53.45
2022-08-14T12:16:32.739Z,54.93
2022-08-14T12:17:38.146Z,53.82
2022-08-14T12:18:32.793Z,55.10
2022-08-14T12:19:33.629Z,54.50
2022-08-14T12:20:32.856Z,54.48
2022-08-14T12:21:32.767Z,53.99
2022-08-14T12:22:32.773Z,54.87
2022-08-14T12:23:32.781Z,55.16
2022-08-14T12:24:36.697Z,53.89
2022-08-14T12:25:34.644Z,54.68
2022-08-14T12:26:40.805Z,53.99
2022-08-14T12:27:32.802Z,54.68
2022-08-14T12:28:34.071Z,54.48
2022-08-14T12:29:32.807Z,53.89
2022-08-14T12:30:37.670Z,54.48
2022-08-14T12:31:44.174Z,54.87
2022-08-14T12:32:32.826Z,54.90
2022-08-14T12:33:33.461Z,55.12
2022-08-14T12:34:32.845Z,54.14
2022-08-14T12:35:32.851Z,53.65
2022-08-14T12:36:32.856Z,54.44
2022-08-14T12:37:32.868Z,53.94
2022-08-14T12:38:32.872Z,54.04
2022-08-14T12:39:39.845Z,55.32
2022-08-14T12:40:32.871Z,54.73
2022-08-14T12:41:34.397Z,53.85
2022-08-14T12:42:34.499Z,54.24
2022-08-14T12:43:32.916Z,53.85
2022-08-14T12:44:32.909Z,54.63
2022-08-14T12:45:32.930Z,54.63
2022-08-14T12:46:32.940Z,55.02
2022-08-14T12:47:32.921Z,54.93
2022-08-14T12:48:32.934Z,55.22
2022-08-14T12:49:32.933Z,55.61
2022-08-14T12:50:32.941Z,55.19
2022-08-14T12:51:32.943Z,55.29
2022-08-14T12:52:45.212Z,54.70
2022-08-14T12:53:36.274Z,55.81
2022-08-14T12:54:32.959Z,54.93
2022-08-14T12:56:18.812Z,54.93
2022-08-14T12:56:34.579Z,54.93
2022-08-14T12:57:32.978Z,54.93
2022-08-14T12:58:49.979Z,54.83
2022-08-14T12:59:33.011Z,54.83
2022-08-14T13:00:33.037Z,53.94
2022-08-14T13:02:00.362Z,54.56
2022-08-14T13:02:33.067Z,54.95
2022-08-14T13:03:33.022Z,54.27
2022-08-14T13:04:33.034Z,53.38
2022-08-14T13:05:33.287Z,53.28
2022-08-14T13:06:33.049Z,53.48
2022-08-14T13:07:33.306Z,52.80
2022-08-14T13:08:34.338Z,52.59
2022-08-14T13:09:36.590Z,52.59
2022-08-14T13:10:51.682Z,53.50
2022-08-14T13:11:33.106Z,52.82
2022-08-14T13:12:43.202Z,53.31
2022-08-14T13:13:33.079Z,52.72
2022-08-14T13:14:33.071Z,52.20
2022-08-14T13:15:33.097Z,53.48
2022-08-14T13:16:38.238Z,52.69
2022-08-14T13:17:34.677Z,53.36
2022-08-14T13:18:33.110Z,53.45
2022-08-14T13:19:33.109Z,53.45
2022-08-14T13:20:33.100Z,53.28
2022-08-14T13:21:58.789Z,52.50
2022-08-14T13:22:33.446Z,53.09
2022-08-14T13:23:33.142Z,52.99
2022-08-14T13:24:33.529Z,52.69
2022-08-14T13:25:33.145Z,53.28
2022-08-14T13:26:33.136Z,52.50
2022-08-14T13:27:33.148Z,53.19
2022-08-14T13:28:34.557Z,52.50
2022-08-14T13:29:33.155Z,52.20
2022-08-14T13:30:33.164Z,53.28
2022-08-14T13:31:34.314Z,53.77
2022-08-14T13:32:33.192Z,53.38
2022-08-14T13:33:33.176Z,53.45
2022-08-14T13:34:33.183Z,52.28
2022-08-14T13:35:33.190Z,52.74
2022-08-14T13:36:54.985Z,54.21
2022-08-14T13:37:33.202Z,53.63
2022-08-14T13:38:33.208Z,54.21
2022-08-14T13:39:36.239Z,53.50
2022-08-14T13:40:33.220Z,53.89
2022-08-14T13:41:36.453Z,53.30
2022-08-14T13:42:33.229Z,53.72
2022-08-14T13:43:36.742Z,53.13
2022-08-14T13:44:33.239Z,54.31
2022-08-14T13:45:59.384Z,53.63
2022-08-14T13:46:33.278Z,54.33
2022-08-14T13:47:33.440Z,54.24
2022-08-14T13:48:36.333Z,53.23
2022-08-14T13:49:33.270Z,54.21
2022-08-14T13:50:33.287Z,53.72
2022-08-14T13:51:33.278Z,52.45
2022-08-14T13:54:10.026Z,54.31
2022-08-14T13:55:07.821Z,54.58
2022-08-14T13:57:03.041Z,53.99
2022-08-14T13:58:05.004Z,54.38
2022-08-14T13:59:57.248Z,54.77
2022-08-14T14:00:57.235Z,54.58
2022-08-14T14:02:52.497Z,55.53
2022-08-14T14:03:52.497Z,54.94
2022-08-14T14:05:52.139Z,53.99
2022-08-14T14:06:46.683Z,53.30
2022-08-14T14:08:46.206Z,53.40
2022-08-14T14:09:51.035Z,56.07
2022-08-14T14:11:34.729Z,53.13
2022-08-14T14:12:38.219Z,52.45
2022-08-14T14:14:51.454Z,53.94
2022-08-14T14:15:48.649Z,53.33
2022-08-14T14:17:24.046Z,54.21
2022-08-14T14:18:34.063Z,53.72
2022-08-14T14:20:35.227Z,54.21
2022-08-14T14:21:18.266Z,54.70
2022-08-14T14:23:17.641Z,54.68
2022-08-14T14:24:15.138Z,54.06
2022-08-14T14:26:06.855Z,54.09
2022-08-14T14:27:38.917Z,53.80
2022-08-14T14:29:01.143Z,53.99
2022-08-14T14:30:01.136Z,54.09
2022-08-14T14:33:47.134Z,51.34
2022-08-14T14:34:41.392Z,50.76
2022-08-14T14:35:41.405Z,51.54
2022-08-14T14:36:41.416Z,51.64
2022-08-14T14:37:41.405Z,51.34
2022-08-14T14:38:41.411Z,51.46
2022-08-14T14:40:52.051Z,51.76
2022-08-14T14:40:52.438Z,51.96
2022-08-14T14:41:43.344Z,51.66
2022-08-14T14:42:41.481Z,51.96
2022-08-14T14:43:41.435Z,51.66
2022-08-14T14:44:41.436Z,52.45
2022-08-14T14:45:41.445Z,52.25
2022-08-14T14:46:41.630Z,52.18
2022-08-14T14:47:41.451Z,52.08
2022-08-14T14:48:41.451Z,51.69
2022-08-14T14:49:42.212Z,52.28
2022-08-14T14:50:41.463Z,52.08
2022-08-14T14:51:43.497Z,52.08
2022-08-14T14:52:41.491Z,52.28
2022-08-14T14:53:41.492Z,52.37
2022-08-14T14:54:41.487Z,51.98
2022-08-14T14:55:54.185Z,52.37
2022-08-14T14:56:47.677Z,52.76
2022-08-14T14:57:41.505Z,51.98
2022-08-14T14:58:41.515Z,51.89
2022-08-14T14:59:41.513Z,51.89
2022-08-14T15:00:41.531Z,51.86
2022-08-14T15:01:41.581Z,52.06
2022-08-14T15:02:42.111Z,52.55
2022-08-14T15:03:41.561Z,52.94
2022-08-14T15:04:43.628Z,53.72
2022-08-14T15:05:41.550Z,53.89
2022-08-14T15:06:47.625Z,53.30
2022-08-14T15:07:41.562Z,53.59
2022-08-14T15:08:55.655Z,54.48
2022-08-14T15:09:41.571Z,54.09
2022-08-14T15:10:41.590Z,55.07
2022-08-14T15:11:41.608Z,55.66
2022-08-14T15:12:56.245Z,53.80
2022-08-14T15:13:43.296Z,53.69
2022-08-14T15:14:55.198Z,53.99
2022-08-14T15:15:41.618Z,53.59
2022-08-14T15:16:41.623Z,53.80
2022-08-14T15:17:42.080Z,53.08
2022-08-14T15:18:46.474Z,53.18
2022-08-14T15:19:41.615Z,53.67
2022-08-14T15:20:41.623Z,53.99
2022-08-14T15:21:41.621Z,54.06
2022-08-14T15:22:43.545Z,53.40
2022-08-14T15:23:44.705Z,52.59
2022-08-14T15:24:41.644Z,54.48
2022-08-14T15:25:41.651Z,55.95
2022-08-14T15:26:41.651Z,57.32
2022-08-14T15:27:44.219Z,55.04
2022-08-14T15:28:41.686Z,54.09
2022-08-14T15:29:43.226Z,54.68
2022-08-14T15:30:41.727Z,57.12
2022-08-14T15:31:41.677Z,57.81
2022-08-14T15:32:41.702Z,56.44
2022-08-14T15:34:33.238Z,57.03
2022-08-14T15:34:51.132Z,57.12
2022-08-14T15:35:45.973Z,56.93
2022-08-14T15:36:41.708Z,57.22
2022-08-14T15:37:42.283Z,56.73
2022-08-14T15:38:42.793Z,56.05
2022-08-14T15:39:41.826Z,56.73
2022-08-14T15:40:41.712Z,55.95
2022-08-14T15:41:42.142Z,58.69
2022-08-14T15:42:41.797Z,58.11
2022-08-14T15:43:41.736Z,55.95
2022-08-14T15:44:44.698Z,56.73
2022-08-14T15:45:41.767Z,58.11
2022-08-14T15:46:45.558Z,58.20
2022-08-14T15:47:42.847Z,58.01
2022-08-14T15:48:44.167Z,56.12
2022-08-14T15:49:41.791Z,54.77
2022-08-14T15:50:41.767Z,54.77
2022-08-14T15:51:42.339Z,54.68
2022-08-14T15:52:43.243Z,54.77
2022-08-14T15:53:41.785Z,54.68
2022-08-14T15:54:41.792Z,55.95
2022-08-14T15:55:41.790Z,55.16
2022-08-14T15:56:43.277Z,53.69
2022-08-14T15:58:02.273Z,54.09
2022-08-14T15:58:41.803Z,54.77
2022-08-14T15:59:41.815Z,57.22
2022-08-14T16:00:44.467Z,55.76
2022-08-14T16:01:53.811Z,53.99
2022-08-14T16:02:41.907Z,55.95
2022-08-14T16:03:42.525Z,54.97